createdAt,value
2022-08-31T00:00:58.715Z,6.93
2022-08-31T00:03:45.049Z,6.17
2022-08-31T00:06:13.864Z,5.70
2022-08-31T00:08:44.063Z,7.03
2022-08-31T00:11:14.543Z,5.73
2022-08-31T00:13:43.873Z,6.67
2022-08-31T00:16:13.803Z,5.37
2022-08-31T00:18:42.575Z,5.50
2022-08-31T00:21:11.253Z,5.70
2022-08-31T00:23:40.019Z,6.37
2022-08-31T00:26:10.017Z,6.20
2022-08-31T00:28:38.705Z,6.10
2022-08-31T00:31:07.343Z,5.83
2022-08-31T00:33:36.802Z,7.03
2022-08-31T00:36:07.281Z,6.33
2022-08-31T00:38:36.381Z,6.07
2022-08-31T00:41:05.092Z,6.80
2022-08-31T00:43:42.814Z,5.77
2022-08-31T00:46:13.990Z,6.00
2022-08-31T00:48:45.861Z,7.03
2022-08-31T00:51:15.271Z,5.83
2022-08-31T00:53:49.718Z,6.37
2022-08-31T00:56:21.114Z,6.10
2022-08-31T00:58:54.704Z,6.13
2022-08-31T01:01:24.512Z,6.83
2022-08-31T01:03:53.217Z,5.80
2022-08-31T01:06:23.042Z,6.03
2022-08-31T01:08:52.735Z,6.60
2022-08-31T01:11:22.755Z,6.40
2022-08-31T01:13:53.125Z,6.13
2022-08-31T01:16:25.587Z,5.60
2022-08-31T01:18:57.256Z,5.70
2022-08-31T01:21:30.324Z,6.30
2022-08-31T01:24:03.370Z,5.43
2022-08-31T01:26:33.301Z,5.60
2022-08-31T01:29:05.747Z,5.60
2022-08-31T01:31:38.215Z,6.50
2022-08-31T01:34:07.370Z,6.10
2022-08-31T01:36:38.283Z,6.60
2022-08-31T01:39:10.282Z,5.40
2022-08-31T01:41:43.460Z,6.27
2022-08-31T01:44:15.598Z,5.87
2022-08-31T01:46:44.829Z,7.67
2022-08-31T01:49:14.333Z,7.30
2022-08-31T01:51:43.755Z,8.70
2022-08-31T01:54:13.958Z,6.10
2022-08-31T01:56:45.280Z,6.20
2022-08-31T01:59:16.260Z,6.80
2022-08-31T02:01:48.240Z,6.77
2022-08-31T02:04:19.397Z,6.37
2022-08-31T02:06:50.777Z,7.37
2022-08-31T02:09:22.420Z,6.70
2022-08-31T02:11:51.796Z,6.30
2022-08-31T02:14:21.340Z,6.50
2022-08-31T02:16:50.625Z,6.57
2022-08-31T02:19:19.490Z,6.40
2022-08-31T02:21:48.134Z,6.67
2022-08-31T02:24:16.804Z,7.20
2022-08-31T02:26:51.664Z,6.63
2022-08-31T02:29:22.305Z,6.97
2022-08-31T02:31:52.051Z,6.30
2022-08-31T02:34:20.876Z,6.20
2022-08-31T02:36:49.511Z,6.77
2022-08-31T02:39:18.340Z,6.40
2022-08-31T02:41:48.577Z,6.10
2022-08-31T02:44:17.246Z,7.73
2022-08-31T02:46:46.021Z,7.00
2022-08-31T02:49:14.672Z,6.43
2022-08-31T02:51:43.769Z,7.57
2022-08-31T02:54:13.345Z,6.23
2022-08-31T02:56:42.367Z,6.23
2022-08-31T02:59:12.397Z,6.60
2022-08-31T03:01:42.261Z,5.67
2022-08-31T03:04:11.083Z,6.40
2022-08-31T03:06:39.834Z,7.80
2022-08-31T03:09:08.401Z,6.63
2022-08-31T03:11:37.129Z,6.97
2022-08-31T03:14:05.784Z,6.43
2022-08-31T03:16:35.902Z,6.80
2022-08-31T03:19:04.522Z,7.40
2022-08-31T03:21:33.383Z,7.10
2022-08-31T03:24:02.127Z,6.13
2022-08-31T03:26:30.904Z,8.67
2022-08-31T03:28:59.676Z,8.40
2022-08-31T03:31:28.394Z,6.53
2022-08-31T03:33:59.290Z,7.00
2022-08-31T03:36:28.115Z,7.27
2022-08-31T03:38:56.823Z,7.87
2022-08-31T03:41:26.746Z,7.97
2022-08-31T03:43:55.843Z,7.77
2022-08-31T03:46:24.963Z,7.17
2022-08-31T03:48:54.786Z,8.30
2022-08-31T03:51:24.880Z,7.93
2022-08-31T03:53:53.496Z,8.20
2022-08-31T03:56:22.360Z,7.30
2022-08-31T03:58:50.973Z,7.60
2022-08-31T04:01:19.731Z,7.47
2022-08-31T04:03:48.428Z,7.80
2022-08-31T04:06:16.970Z,6.60
2022-08-31T04:08:48.458Z,8.90
2022-08-31T04:11:19.851Z,9.00
2022-08-31T04:13:58.814Z,8.57
2022-08-31T04:16:28.041Z,8.10
2022-08-31T04:18:56.791Z,7.87
2022-08-31T04:21:27.019Z,9.00
2022-08-31T04:23:57.483Z,9.63
2022-08-31T04:26:28.137Z,8.13
2022-08-31T04:28:57.384Z,8.37
2022-08-31T04:31:27.803Z,10.20
2022-08-31T04:33:57.552Z,9.30
2022-08-31T04:36:28.797Z,8.90
2022-08-31T04:39:00.866Z,9.23
2022-08-31T04:41:31.673Z,8.20
2022-08-31T04:44:01.986Z,8.53
2022-08-31T04:46:31.754Z,8.40
2022-08-31T04:49:00.789Z,8.20
2022-08-31T04:51:35.642Z,8.67
2022-08-31T04:54:07.725Z,8.20
2022-08-31T04:56:39.679Z,8.00
2022-08-31T04:59:10.612Z,8.07
2022-08-31T05:01:43.148Z,8.03
2022-08-31T05:04:14.469Z,8.50
2022-08-31T05:06:45.293Z,8.20
2022-08-31T05:09:17.808Z,8.33
2022-08-31T05:11:47.410Z,8.03
2022-08-31T05:14:16.072Z,6.33
2022-08-31T05:16:45.906Z,6.40
2022-08-31T05:19:15.254Z,6.07
2022-08-31T05:21:45.094Z,6.10
2022-08-31T05:24:17.304Z,7.73
2022-08-31T05:26:48.306Z,6.97
2022-08-31T05:29:18.868Z,6.70
2022-08-31T05:31:52.032Z,7.27
2022-08-31T05:34:22.653Z,7.07
2022-08-31T05:36:55.296Z,5.97
2022-08-31T05:39:26.267Z,6.90
2022-08-31T05:41:55.651Z,6.20
2022-08-31T05:44:26.094Z,6.00
2022-08-31T05:47:03.655Z,6.07
2022-08-31T05:49:33.256Z,5.80
2022-08-31T05:52:02.836Z,5.77
2022-08-31T05:54:35.918Z,6.47
2022-08-31T05:57:04.813Z,4.80
2022-08-31T05:59:34.234Z,5.60
2022-08-31T06:02:04.945Z,5.63
2022-08-31T06:04:33.869Z,6.30
2022-08-31T06:07:02.609Z,5.63
2022-08-31T06:09:38.476Z,5.87
2022-08-31T06:12:09.834Z,5.60
2022-08-31T06:14:38.974Z,4.93
2022-08-31T06:17:07.764Z,5.37
2022-08-31T06:19:37.639Z,5.70
2022-08-31T06:22:06.415Z,4.90
2022-08-31T06:24:38.238Z,5.20
2022-08-31T06:27:07.685Z,5.90
2022-08-31T06:29:36.238Z,5.23
2022-08-31T06:32:08.348Z,5.37
2022-08-31T06:34:37.539Z,5.07
2022-08-31T06:37:07.432Z,5.30
2022-08-31T06:39:41.095Z,4.87
2022-08-31T06:42:13.803Z,5.23
2022-08-31T06:44:44.256Z,5.13
2022-08-31T06:47:12.769Z,4.60
2022-08-31T06:49:41.336Z,4.83
2022-08-31T06:52:09.939Z,4.47
2022-08-31T06:54:39.852Z,4.93
2022-08-31T06:57:08.415Z,3.90
2022-08-31T06:59:36.943Z,4.80
2022-08-31T07:02:05.866Z,4.63
2022-08-31T07:04:36.237Z,4.67
2022-08-31T07:07:05.988Z,4.60
2022-08-31T07:09:34.889Z,4.30
2022-08-31T07:12:06.281Z,5.20
2022-08-31T07:14:35.764Z,4.33
2022-08-31T07:17:04.644Z,4.90
2022-08-31T07:19:33.335Z,4.20
2022-08-31T07:22:05.473Z,4.57
2022-08-31T07:24:35.342Z,5.03
2022-08-31T07:27:10.127Z,4.37
2022-08-31T07:29:41.236Z,4.67
2022-08-31T07:32:11.093Z,4.27
2022-08-31T07:34:40.195Z,4.20
2022-08-31T07:37:26.620Z,4.00
2022-08-31T07:40:13.344Z,3.70
2022-08-31T07:42:46.971Z,4.60
2022-08-31T07:45:22.502Z,4.40
2022-08-31T07:47:52.835Z,3.80
2022-08-31T07:50:22.372Z,4.70
2022-08-31T07:52:54.606Z,4.00
2022-08-31T07:55:25.090Z,4.17
2022-08-31T07:57:56.438Z,4.50
2022-08-31T08:00:27.828Z,3.63
2022-08-31T08:02:57.090Z,4.40
2022-08-31T08:05:28.798Z,3.97
2022-08-31T08:08:06.601Z,4.27
2022-08-31T08:10:41.306Z,4.27
2022-08-31T08:13:12.684Z,4.37
2022-08-31T08:15:41.382Z,3.43
2022-08-31T08:18:10.870Z,4.83
2022-08-31T08:20:40.236Z,3.70
2022-08-31T08:23:13.980Z,4.13
2022-08-31T08:25:44.361Z,4.17
2022-08-31T08:31:07.029Z,3.70
2022-08-31T08:33:36.467Z,3.57
2022-08-31T08:36:08.343Z,4.17
2022-08-31T08:38:40.152Z,4.43
2022-08-31T08:41:13.693Z,3.90
2022-08-31T08:43:47.965Z,3.53
2022-08-31T08:46:36.625Z,4.73
2022-08-31T08:49:15.718Z,3.43
2022-08-31T08:51:46.097Z,4.00
2022-08-31T08:54:20.337Z,4.23
2022-08-31T08:56:49.444Z,3.70
2022-08-31T08:59:20.478Z,3.23
2022-08-31T09:01:56.364Z,5.03
2022-08-31T09:04:41.152Z,3.33
2022-08-31T09:07:30.840Z,4.40
2022-08-31T09:10:06.507Z,3.70
2022-08-31T09:12:44.541Z,4.30
2022-08-31T09:15:37.310Z,3.20
2022-08-31T09:18:17.807Z,4.57
2022-08-31T09:21:07.058Z,4.13
2022-08-31T09:23:49.152Z,3.70
2022-08-31T09:26:19.117Z,4.50
2022-08-31T09:28:52.845Z,3.90
2022-08-31T09:31:37.391Z,3.50
2022-08-31T09:34:14.383Z,3.60
2022-08-31T09:36:43.177Z,4.30
2022-08-31T09:39:20.868Z,3.97
2022-08-31T09:41:51.188Z,3.13
2022-08-31T09:44:33.947Z,2.43
2022-08-31T09:47:06.509Z,3.10
2022-08-31T09:49:37.918Z,3.13
2022-08-31T09:52:44.891Z,2.80
2022-08-31T09:55:21.324Z,2.67
2022-08-31T09:57:57.243Z,3.13
2022-08-31T10:00:35.185Z,2.40
2022-08-31T10:03:20.229Z,2.53
2022-08-31T10:05:51.689Z,2.10
2022-08-31T10:08:31.945Z,2.40
2022-08-31T10:11:06.497Z,2.83
2022-08-31T10:13:40.289Z,2.40
2022-08-31T10:16:17.096Z,2.27
2022-08-31T10:18:57.633Z,1.93
2022-08-31T10:21:36.192Z,1.90
2022-08-31T10:24:20.639Z,1.90
2022-08-31T10:26:54.019Z,1.93
2022-08-31T10:29:32.772Z,2.37
2022-08-31T10:32:06.038Z,2.30
2022-08-31T10:34:59.334Z,2.30
2022-08-31T10:37:36.204Z,2.43
2022-08-31T10:40:08.880Z,2.33
2022-08-31T10:42:40.368Z,2.33
2022-08-31T10:45:30.070Z,2.63
2022-08-31T10:48:05.067Z,2.10
2022-08-31T10:50:45.070Z,2.60
2022-08-31T10:53:27.410Z,2.20
2022-08-31T10:56:02.351Z,2.20
2022-08-31T10:58:40.033Z,2.70
2022-08-31T11:01:16.344Z,2.33
2022-08-31T11:04:01.069Z,2.70
2022-08-31T11:06:39.161Z,2.37
2022-08-31T11:09:16.083Z,2.00
2022-08-31T11:11:48.452Z,2.10
2022-08-31T11:15:00.868Z,2.43
2022-08-31T11:17:54.074Z,2.13
2022-08-31T11:20:43.099Z,2.20
2022-08-31T11:23:46.208Z,2.90
2022-08-31T11:26:46.329Z,2.40
2022-08-31T11:29:28.811Z,1.93
2022-08-31T11:32:04.922Z,2.03
2022-08-31T11:34:47.439Z,1.93
2022-08-31T11:37:52.780Z,2.10
2022-08-31T11:41:00.757Z,1.73
2022-08-31T11:43:52.099Z,2.17
2022-08-31T11:46:59.811Z,1.50
2022-08-31T11:49:44.890Z,1.60
2022-08-31T11:52:43.330Z,2.20
2022-08-31T11:55:28.461Z,1.80
2022-08-31T11:58:28.982Z,1.87
2022-08-31T12:01:05.922Z,1.70
2022-08-31T12:03:50.400Z,2.10
2022-08-31T12:07:08.630Z,1.97
2022-08-31T12:10:31.592Z,1.53
2022-08-31T12:13:19.818Z,1.80
2022-08-31T12:16:12.478Z,2.00
2022-08-31T12:18:57.999Z,2.10
2022-08-31T12:21:52.426Z,2.27
2022-08-31T12:24:34.513Z,1.70
2022-08-31T12:27:19.541Z,1.93
2022-08-31T12:29:49.930Z,1.70
2022-08-31T12:32:32.179Z,1.80
2022-08-31T12:35:12.940Z,2.20
2022-08-31T12:37:43.965Z,2.00
2022-08-31T12:40:17.835Z,1.87
2022-08-31T12:43:06.792Z,1.60
2022-08-31T12:46:17.732Z,2.17
2022-08-31T12:49:15.817Z,1.80
2022-08-31T12:51:48.989Z,1.93
2022-08-31T12:54:48.171Z,2.10
2022-08-31T12:57:32.946Z,1.90
2022-08-31T13:02:29.595Z,2.30
2022-08-31T13:05:01.037Z,2.20
2022-08-31T13:07:36.682Z,2.00
2022-08-31T13:10:11.747Z,2.70
2022-08-31T13:12:41.192Z,1.90
2022-08-31T13:15:21.699Z,3.13
2022-08-31T13:17:50.364Z,2.37
2022-08-31T13:20:22.908Z,2.50
2022-08-31T13:22:58.978Z,2.50
2022-08-31T13:25:36.237Z,1.70
2022-08-31T13:28:07.282Z,1.87
2022-08-31T13:30:41.678Z,1.67
2022-08-31T13:33:25.079Z,2.03
2022-08-31T13:36:03.850Z,1.70
2022-08-31T13:38:43.336Z,1.90
2022-08-31T13:41:19.892Z,1.53
2022-08-31T13:43:58.969Z,2.40
2022-08-31T13:46:42.280Z,2.10
2022-08-31T13:49:26.051Z,1.90
2022-08-31T13:51:56.366Z,2.60
2022-08-31T13:54:30.571Z,1.70
2022-08-31T13:57:11.728Z,2.20
2022-08-31T13:59:42.034Z,1.83
2022-08-31T14:02:37.656Z,2.17
2022-08-31T14:05:12.952Z,2.37
2022-08-31T14:08:02.171Z,2.23
2022-08-31T14:10:36.204Z,2.30
2022-08-31T14:13:13.873Z,2.33
2022-08-31T14:15:50.363Z,1.57
2022-08-31T14:18:25.979Z,1.83
2022-08-31T14:21:21.954Z,1.63
2022-08-31T14:23:54.079Z,1.57
2022-08-31T14:26:26.469Z,1.97
2022-08-31T14:28:57.553Z,1.90
2022-08-31T14:31:29.706Z,2.30
2022-08-31T14:34:23.941Z,1.80
2022-08-31T14:36:57.550Z,2.10
2022-08-31T14:39:30.867Z,1.80
2022-08-31T14:42:02.565Z,2.53
2022-08-31T14:44:34.352Z,2.33
2022-08-31T14:47:03.426Z,1.93
2022-08-31T14:49:36.271Z,1.97
2022-08-31T14:52:06.558Z,2.50
2022-08-31T14:54:37.704Z,2.43
2022-08-31T14:57:10.078Z,2.23
2022-08-31T14:59:40.883Z,1.93
2022-08-31T15:02:12.078Z,2.20
2022-08-31T15:04:45.489Z,1.90
2022-08-31T15:07:15.238Z,2.07
2022-08-31T15:09:47.826Z,1.80
2022-08-31T15:12:19.532Z,1.87
2022-08-31T15:14:48.075Z,1.97
2022-08-31T15:17:20.478Z,1.80
2022-08-31T15:19:55.165Z,2.23
2022-08-31T15:22:26.238Z,2.57
2022-08-31T15:24:57.184Z,2.13
2022-08-31T15:27:28.995Z,2.30
2022-08-31T15:30:07.638Z,2.80
2022-08-31T15:32:39.828Z,2.40
2022-08-31T15:35:09.139Z,2.63
2022-08-31T15:37:41.218Z,1.90
2022-08-31T15:40:12.326Z,2.13
2022-08-31T15:42:45.196Z,2.30
2022-08-31T15:45:13.851Z,2.77
2022-08-31T15:48:00.246Z,2.10
2022-08-31T15:50:31.703Z,2.43
2022-08-31T15:53:09.566Z,2.33
2022-08-31T15:55:41.409Z,2.10
2022-08-31T15:58:10.708Z,2.77
2022-08-31T16:00:41.752Z,2.70
2022-08-31T16:03:10.990Z,1.97
2022-08-31T16:05:39.948Z,1.87
2022-08-31T16:08:11.241Z,1.70
2022-08-31T16:10:49.375Z,1.93
2022-08-31T16:13:19.326Z,1.80
2022-08-31T16:15:52.109Z,2.13
2022-08-31T16:18:21.761Z,1.80
2022-08-31T16:20:51.898Z,2.07
2022-08-31T16:23:21.029Z,2.30
2022-08-31T16:25:51.031Z,2.10
2022-08-31T16:28:21.246Z,1.90
2022-08-31T16:30:51.919Z,2.10
2022-08-31T16:33:21.260Z,1.90
2022-08-31T16:35:50.013Z,1.70
2022-08-31T16:38:18.679Z,2.10
2022-08-31T16:40:47.386Z,2.40
2022-08-31T16:43:17.350Z,1.80
2022-08-31T16:45:45.974Z,2.00
2022-08-31T16:48:31.827Z,2.00
2022-08-31T16:51:02.170Z,1.90
2022-08-31T16:53:31.671Z,1.90
2022-08-31T16:56:00.707Z,2.07
2022-08-31T17:01:23.966Z,1.80
2022-08-31T17:03:55.817Z,2.20
2022-08-31T17:06:25.016Z,2.07
2022-08-31T17:08:58.141Z,1.77
2022-08-31T17:11:31.426Z,2.47
2022-08-31T17:14:03.477Z,1.80
2022-08-31T17:16:34.752Z,2.33
2022-08-31T17:19:06.489Z,1.90
2022-08-31T17:21:36.068Z,2.20
2022-08-31T17:24:10.255Z,2.03
2022-08-31T17:26:40.217Z,2.20
2022-08-31T17:29:10.981Z,2.23
2022-08-31T17:31:43.338Z,1.80
2022-08-31T17:34:15.443Z,1.80
2022-08-31T17:36:46.434Z,1.90
2022-08-31T17:39:18.454Z,2.23
2022-08-31T17:41:48.819Z,1.73
2022-08-31T17:44:20.650Z,1.60
2022-08-31T17:46:52.227Z,1.90
2022-08-31T17:49:22.790Z,1.97
2022-08-31T17:51:52.731Z,1.93
2022-08-31T17:54:24.041Z,2.20
2022-08-31T17:56:56.767Z,2.70
2022-08-31T17:59:30.390Z,1.87
2022-08-31T18:02:01.630Z,2.30
2022-08-31T18:04:34.090Z,2.10
2022-08-31T18:07:03.256Z,1.93
2022-08-31T18:09:34.421Z,2.00
2022-08-31T18:12:06.191Z,2.33
2022-08-31T18:14:38.128Z,2.70
2022-08-31T18:17:10.241Z,2.53
2022-08-31T18:19:39.576Z,1.97
2022-08-31T18:22:08.923Z,2.40
2022-08-31T18:24:39.280Z,2.23
2022-08-31T18:27:10.246Z,2.10
2022-08-31T18:29:43.178Z,2.10
2022-08-31T18:32:12.000Z,2.63
2022-08-31T18:34:44.167Z,2.00
2022-08-31T18:37:13.799Z,2.23
2022-08-31T18:40:02.336Z,2.50
2022-08-31T18:42:50.581Z,1.70
2022-08-31T18:45:20.919Z,2.33
2022-08-31T18:50:44.435Z,4.57
2022-08-31T18:53:28.853Z,2.97
2022-08-31T18:56:06.650Z,4.67
2022-08-31T18:58:35.692Z,4.77
2022-08-31T19:01:10.590Z,4.20
2022-08-31T19:03:39.768Z,3.00
2022-08-31T19:06:09.490Z,4.30
2022-08-31T19:08:41.677Z,3.90
2022-08-31T19:11:11.027Z,4.00
2022-08-31T19:13:39.996Z,3.77
2022-08-31T19:16:16.805Z,3.73
2022-08-31T19:18:48.339Z,3.03
2022-08-31T19:21:20.479Z,4.47
2022-08-31T19:23:51.466Z,3.70
2022-08-31T19:26:26.980Z,3.20
2022-08-31T19:28:56.949Z,3.50
2022-08-31T19:31:30.608Z,2.90
2022-08-31T19:33:59.498Z,3.10
2022-08-31T19:36:28.751Z,3.20
2022-08-31T19:38:59.685Z,3.20
2022-08-31T19:41:29.381Z,3.40
2022-08-31T19:44:08.507Z,3.17
2022-08-31T19:46:40.465Z,4.07
2022-08-31T19:49:11.189Z,4.03
2022-08-31T19:51:41.103Z,3.90
2022-08-31T19:54:12.690Z,3.63
2022-08-31T19:56:44.703Z,3.57
2022-08-31T19:59:18.379Z,3.50
2022-08-31T20:01:52.273Z,4.17
2022-08-31T20:04:21.516Z,3.70
2022-08-31T20:06:52.550Z,4.00
2022-08-31T20:09:23.459Z,3.80
2022-08-31T20:11:54.465Z,4.67
2022-08-31T20:14:24.492Z,4.23
2022-08-31T20:16:55.542Z,3.80
2022-08-31T20:19:26.032Z,3.83
2022-08-31T20:21:56.161Z,4.33
2022-08-31T20:24:26.919Z,4.00
2022-08-31T20:27:08.988Z,4.00
2022-08-31T20:29:39.500Z,6.10
2022-08-31T20:32:10.136Z,4.70
2022-08-31T20:34:39.164Z,4.07
2022-08-31T20:37:08.476Z,5.27
2022-08-31T20:39:39.381Z,4.33
2022-08-31T20:42:08.418Z,4.53
2022-08-31T20:44:38.621Z,3.50
2022-08-31T20:47:28.454Z,3.77
2022-08-31T20:50:00.058Z,4.23
2022-08-31T20:52:32.095Z,4.20
2022-08-31T20:55:02.943Z,3.90
2022-08-31T20:57:33.789Z,3.90
2022-08-31T21:00:04.112Z,4.73
2022-08-31T21:02:35.397Z,4.17
2022-08-31T21:05:36.666Z,5.17
2022-08-31T21:07:57.562Z,4.70
2022-08-31T21:10:36.378Z,4.17
2022-08-31T21:13:10.332Z,4.13
2022-08-31T21:15:44.007Z,3.70
2022-08-31T21:18:17.847Z,4.03
2022-08-31T21:20:51.496Z,4.07
2022-08-31T21:23:20.387Z,3.93
2022-08-31T21:25:49.491Z,3.93
2022-08-31T21:28:19.182Z,4.73
2022-08-31T21:30:50.341Z,3.90
2022-08-31T21:33:21.093Z,4.07
2022-08-31T21:35:50.221Z,4.00
2022-08-31T21:38:19.150Z,4.80
2022-08-31T21:40:51.734Z,4.27
2022-08-31T21:43:20.919Z,3.90
2022-08-31T21:45:55.057Z,4.87
2022-08-31T21:48:26.062Z,4.07
2022-08-31T21:50:56.044Z,4.60
2022-08-31T21:53:25.882Z,4.73
2022-08-31T21:55:55.559Z,5.17
2022-08-31T21:58:24.389Z,4.73
2022-08-31T22:00:55.496Z,4.90
2022-08-31T22:03:25.952Z,4.90
2022-08-31T22:06:04.460Z,5.03
2022-08-31T22:08:33.582Z,4.40
2022-08-31T22:11:02.308Z,3.87
2022-08-31T22:13:31.125Z,4.50
2022-08-31T22:16:02.835Z,4.63
2022-08-31T22:19:00.114Z,4.83
2022-08-31T22:21:24.847Z,3.97
2022-08-31T22:23:55.515Z,4.40
2022-08-31T22:26:28.450Z,4.60
2022-08-31T22:28:57.294Z,3.80
2022-08-31T22:31:27.503Z,5.27
2022-08-31T22:33:58.165Z,4.47
2022-08-31T22:36:32.345Z,4.10
2022-08-31T22:39:03.320Z,3.90
2022-08-31T22:41:32.841Z,3.73
2022-08-31T22:44:02.007Z,4.00
2022-08-31T22:46:31.102Z,4.40
2022-08-31T22:49:01.948Z,4.13
2022-08-31T22:51:30.667Z,4.80
2022-08-31T22:53:59.520Z,4.37
2022-08-31T22:56:30.127Z,4.07
2022-08-31T22:59:00.788Z,4.30
2022-08-31T23:01:32.221Z,4.93
2022-08-31T23:04:06.822Z,4.50
2022-08-31T23:06:37.999Z,4.37
2022-08-31T23:09:08.805Z,4.97
2022-08-31T23:11:37.895Z,4.70
2022-08-31T23:14:10.322Z,4.67
2022-08-31T23:16:42.247Z,4.97
2022-08-31T23:19:14.551Z,5.37
2022-08-31T23:21:55.052Z,5.80
2022-08-31T23:24:28.009Z,5.07
2022-08-31T23:27:03.886Z,5.60
2022-08-31T23:29:34.819Z,6.13
2022-08-31T23:32:04.622Z,4.20
2022-08-31T23:34:38.528Z,4.90
2022-08-31T23:37:08.919Z,4.20
2022-08-31T23:39:39.175Z,4.70
2022-08-31T23:42:12.230Z,4.40
2022-08-31T23:44:43.681Z,4.43
2022-08-31T23:47:14.556Z,4.07
2022-08-31T23:49:46.041Z,4.53
2022-08-31T23:52:18.648Z,4.27
2022-08-31T23:54:47.960Z,4.80
2022-08-31T23:57:32.103Z,4.23
